sensor_id;sensor_type;location;lat;lon;timestamp;P1;durP1;ratioP1;P2;durP2;ratioP2
8399;SDS011;4237;47.030;15.396;2023-05-10T00:00:31;6.87;;;5.33;;
8399;SDS011;4237;47.030;15.396;2023-05-10T00:02:59;9.13;;;5.67;;
8399;SDS011;4237;47.030;15.396;2023-05-10T00:05:28;8.60;;;6.37;;
8399;SDS011;4237;47.030;15.396;2023-05-10T00:07:56;9.37;;;6.20;;
8399;SDS011;4237;47.030;15.396;2023-05-10T00:10:24;5.97;;;5.17;;
8399;SDS011;4237;47.030;15.396;2023-05-10T00:12:53;8.00;;;6.27;;
8399;SDS011;4237;47.030;15.396;2023-05-10T00:15:21;16.87;;;5.43;;
8399;SDS011;4237;47.030;15.396;2023-05-10T00:17:49;11.93;;;6.10;;
8399;SDS011;4237;47.030;15.396;2023-05-10T00:20:17;8.90;;;5.60;;
8399;SDS011;4237;47.030;15.396;2023-05-10T00:22:46;6.33;;;5.60;;
8399;SDS011;4237;47.030;15.396;2023-05-10T00:25:14;5.03;;;4.53;;
8399;SDS011;4237;47.030;15.396;2023-05-10T00:27:42;9.37;;;5.60;;
8399;SDS011;4237;47.030;15.396;2023-05-10T00:30:10;7.00;;;5.20;;
8399;SDS011;4237;47.030;15.396;2023-05-10T00:32:38;8.07;;;5.50;;
8399;SDS011;4237;47.030;15.396;2023-05-10T00:35:07;9.17;;;5.63;;
8399;SDS011;4237;47.030;15.396;2023-05-10T00:37:35;7.73;;;5.83;;
8399;SDS011;4237;47.030;15.396;2023-05-10T00:40:04;10.73;;;5.33;;
8399;SDS011;4237;47.030;15.396;2023-05-10T00:42:32;10.17;;;5.63;;
8399;SDS011;4237;47.030;15.396;2023-05-10T00:45:01;7.50;;;5.60;;
8399;SDS011;4237;47.030;15.396;2023-05-10T00:47:29;8.20;;;6.00;;
8399;SDS011;4237;47.030;15.396;2023-05-10T00:49:58;7.70;;;6.23;;
8399;SDS011;4237;47.030;15.396;2023-05-10T00:52:28;7.43;;;6.20;;
8399;SDS011;4237;47.030;15.396;2023-05-10T00:54:56;11.03;;;6.00;;
8399;SDS011;4237;47.030;15.396;2023-05-10T00:57:25;8.67;;;5.83;;
8399;SDS011;4237;47.030;15.396;2023-05-10T00:59:54;7.10;;;6.40;;
8399;SDS011;4237;47.030;15.396;2023-05-10T01:02:22;10.00;;;6.50;;
8399;SDS011;4237;47.030;15.396;2023-05-10T01:04:50;10.97;;;6.20;;
8399;SDS011;4237;47.030;15.396;2023-05-10T01:07:19;12.43;;;5.73;;
8399;SDS011;4237;47.030;15.396;2023-05-10T01:09:47;8.17;;;5.57;;
8399;SDS011;4237;47.030;15.396;2023-05-10T01:12:15;7.70;;;6.50;;
8399;SDS011;4237;47.030;15.396;2023-05-10T01:14:43;7.00;;;5.60;;
8399;SDS011;4237;47.030;15.396;2023-05-10T01:17:12;9.07;;;6.20;;
8399;SDS011;4237;47.030;15.396;2023-05-10T01:19:41;8.37;;;5.67;;
8399;SDS011;4237;47.030;15.396;2023-05-10T01:27:47;8.80;;;6.00;;
8399;SDS011;4237;47.030;15.396;2023-05-10T01:33:00;8.67;;;6.73;;
8399;SDS011;4237;47.030;15.396;2023-05-10T01:35:31;7.17;;;6.40;;
8399;SDS011;4237;47.030;15.396;2023-05-10T01:38:04;9.60;;;5.90;;
8399;SDS011;4237;47.030;15.396;2023-05-10T01:40:35;8.57;;;6.03;;
8399;SDS011;4237;47.030;15.396;2023-05-10T01:43:02;8.20;;;6.33;;
8399;SDS011;4237;47.030;15.396;2023-05-10T01:45:33;8.97;;;6.70;;
8399;SDS011;4237;47.030;15.396;2023-05-10T01:48:03;9.13;;;6.57;;
8399;SDS011;4237;47.030;15.396;2023-05-10T01:50:32;8.67;;;6.27;;
8399;SDS011;4237;47.030;15.396;2023-05-10T01:53:02;9.73;;;6.70;;
8399;SDS011;4237;47.030;15.396;2023-05-10T01:55:32;9.80;;;6.73;;
8399;SDS011;4237;47.030;15.396;2023-05-10T01:58:03;9.20;;;6.20;;
8399;SDS011;4237;47.030;15.396;2023-05-10T02:00:50;8.30;;;6.17;;
8399;SDS011;4237;47.030;15.396;2023-05-10T02:03:20;12.97;;;6.70;;
8399;SDS011;4237;47.030;15.396;2023-05-10T02:05:49;9.00;;;6.40;;
8399;SDS011;4237;47.030;15.396;2023-05-10T02:08:18;10.20;;;7.10;;
8399;SDS011;4237;47.030;15.396;2023-05-10T02:10:47;11.10;;;6.53;;
8399;SDS011;4237;47.030;15.396;2023-05-10T02:13:16;9.23;;;6.10;;
8399;SDS011;4237;47.030;15.396;2023-05-10T02:15:46;7.77;;;6.70;;
8399;SDS011;4237;47.030;15.396;2023-05-10T02:18:14;11.17;;;6.97;;
8399;SDS011;4237;47.030;15.396;2023-05-10T02:20:49;9.03;;;6.40;;
8399;SDS011;4237;47.030;15.396;2023-05-10T02:23:14;12.30;;;7.00;;
8399;SDS011;4237;47.030;15.396;2023-05-10T02:25:43;10.60;;;7.07;;
8399;SDS011;4237;47.030;15.396;2023-05-10T02:28:12;10.93;;;6.90;;
8399;SDS011;4237;47.030;15.396;2023-05-10T02:30:41;8.57;;;7.27;;
8399;SDS011;4237;47.030;15.396;2023-05-10T02:33:10;12.80;;;7.73;;
8399;SDS011;4237;47.030;15.396;2023-05-10T02:35:39;8.83;;;6.67;;
8399;SDS011;4237;47.030;15.396;2023-05-10T02:38:28;8.60;;;7.03;;
8399;SDS011;4237;47.030;15.396;2023-05-10T02:40:56;8.87;;;6.90;;
8399;SDS011;4237;47.030;15.396;2023-05-10T02:43:25;8.67;;;7.03;;
8399;SDS011;4237;47.030;15.396;2023-05-10T02:45:53;9.97;;;6.30;;
8399;SDS011;4237;47.030;15.396;2023-05-10T02:48:21;10.23;;;6.93;;
8399;SDS011;4237;47.030;15.396;2023-05-10T02:50:50;8.53;;;6.57;;
8399;SDS011;4237;47.030;15.396;2023-05-10T02:53:21;8.00;;;6.40;;
8399;SDS011;4237;47.030;15.396;2023-05-10T02:55:50;11.53;;;6.33;;
8399;SDS011;4237;47.030;15.396;2023-05-10T02:58:19;9.47;;;5.83;;
8399;SDS011;4237;47.030;15.396;2023-05-10T03:00:48;10.03;;;6.63;;
8399;SDS011;4237;47.030;15.396;2023-05-10T03:03:16;8.73;;;6.60;;
8399;SDS011;4237;47.030;15.396;2023-05-10T03:05:44;8.73;;;6.47;;
8399;SDS011;4237;47.030;15.396;2023-05-10T03:08:12;8.70;;;7.07;;
8399;SDS011;4237;47.030;15.396;2023-05-10T03:13:25;6.87;;;5.60;;
8399;SDS011;4237;47.030;15.396;2023-05-10T03:15:59;9.23;;;6.30;;
8399;SDS011;4237;47.030;15.396;2023-05-10T03:18:29;9.57;;;6.80;;
8399;SDS011;4237;47.030;15.396;2023-05-10T03:20:59;9.67;;;7.17;;
8399;SDS011;4237;47.030;15.396;2023-05-10T03:23:34;8.60;;;7.20;;
8399;SDS011;4237;47.030;15.396;2023-05-10T03:26:00;9.10;;;6.93;;
8399;SDS011;4237;47.030;15.396;2023-05-10T03:28:29;12.07;;;7.40;;
8399;SDS011;4237;47.030;15.396;2023-05-10T03:30:58;14.77;;;8.10;;
8399;SDS011;4237;47.030;15.396;2023-05-10T03:33:27;9.67;;;7.63;;
8399;SDS011;4237;47.030;15.396;2023-05-10T03:35:56;10.20;;;7.40;;
8399;SDS011;4237;47.030;15.396;2023-05-10T03:38:24;12.73;;;7.70;;
8399;SDS011;4237;47.030;15.396;2023-05-10T03:40:52;13.67;;;7.10;;
8399;SDS011;4237;47.030;15.396;2023-05-10T03:43:21;9.70;;;7.30;;
8399;SDS011;4237;47.030;15.396;2023-05-10T03:45:49;11.17;;;7.63;;
8399;SDS011;4237;47.030;15.396;2023-05-10T03:48:17;12.70;;;7.50;;
8399;SDS011;4237;47.030;15.396;2023-05-10T03:50:45;11.17;;;8.27;;
8399;SDS011;4237;47.030;15.396;2023-05-10T03:53:13;10.43;;;8.10;;
8399;SDS011;4237;47.030;15.396;2023-05-10T03:55:41;11.17;;;7.83;;
8399;SDS011;4237;47.030;15.396;2023-05-10T03:58:12;15.70;;;8.27;;
8399;SDS011;4237;47.030;15.396;2023-05-10T04:00:41;11.40;;;8.00;;
8399;SDS011;4237;47.030;15.396;2023-05-10T04:03:11;13.23;;;9.40;;
8399;SDS011;4237;47.030;15.396;2023-05-10T04:05:39;16.83;;;10.43;;
8399;SDS011;4237;47.030;15.396;2023-05-10T04:08:07;17.57;;;9.97;;
8399;SDS011;4237;47.030;15.396;2023-05-10T04:10:36;13.50;;;9.20;;
8399;SDS011;4237;47.030;15.396;2023-05-10T04:13:04;15.53;;;11.03;;
8399;SDS011;4237;47.030;15.396;2023-05-10T04:15:32;14.13;;;9.77;;
8399;SDS011;4237;47.030;15.396;2023-05-10T04:18:00;15.13;;;10.47;;
8399;SDS011;4237;47.030;15.396;2023-05-10T04:20:29;14.93;;;10.20;;
8399;SDS011;4237;47.030;15.396;2023-05-10T04:22:57;12.73;;;9.50;;
8399;SDS011;4237;47.030;15.396;2023-05-10T04:25:25;12.30;;;9.30;;
8399;SDS011;4237;47.030;15.396;2023-05-10T04:27:53;13.97;;;9.20;;
8399;SDS011;4237;47.030;15.396;2023-05-10T04:30:21;13.27;;;8.37;;
8399;SDS011;4237;47.030;15.396;2023-05-10T04:32:50;11.03;;;7.97;;
8399;SDS011;4237;47.030;15.396;2023-05-10T04:35:18;14.23;;;8.17;;
8399;SDS011;4237;47.030;15.396;2023-05-10T04:37:46;10.97;;;8.00;;
8399;SDS011;4237;47.030;15.396;2023-05-10T04:40:14;12.93;;;7.60;;
8399;SDS011;4237;47.030;15.396;2023-05-10T04:42:43;9.70;;;7.67;;
8399;SDS011;4237;47.030;15.396;2023-05-10T04:45:11;11.23;;;7.40;;
8399;SDS011;4237;47.030;15.396;2023-05-10T04:47:41;11.93;;;8.10;;
8399;SDS011;4237;47.030;15.396;2023-05-10T04:50:10;8.17;;;7.20;;
8399;SDS011;4237;47.030;15.396;2023-05-10T04:52:38;8.67;;;7.10;;
8399;SDS011;4237;47.030;15.396;2023-05-10T04:55:06;11.13;;;7.20;;
8399;SDS011;4237;47.030;15.396;2023-05-10T04:57:36;11.40;;;7.03;;
8399;SDS011;4237;47.030;15.396;2023-05-10T05:00:05;12.77;;;7.10;;
8399;SDS011;4237;47.030;15.396;2023-05-10T05:02:33;9.83;;;6.50;;
8399;SDS011;4237;47.030;15.396;2023-05-10T05:05:02;9.57;;;6.30;;
8399;SDS011;4237;47.030;15.396;2023-05-10T05:07:30;7.80;;;6.37;;
8399;SDS011;4237;47.030;15.396;2023-05-10T05:09:58;10.33;;;6.07;;
8399;SDS011;4237;47.030;15.396;2023-05-10T05:12:26;8.43;;;5.70;;
8399;SDS011;4237;47.030;15.396;2023-05-10T05:14:54;7.17;;;5.80;;
8399;SDS011;4237;47.030;15.396;2023-05-10T05:17:23;10.57;;;5.60;;
8399;SDS011;4237;47.030;15.396;2023-05-10T05:19:51;6.97;;;5.13;;
8399;SDS011;4237;47.030;15.396;2023-05-10T05:22:19;8.17;;;5.60;;
8399;SDS011;4237;47.030;15.396;2023-05-10T05:24:49;7.50;;;5.27;;
8399;SDS011;4237;47.030;15.396;2023-05-10T05:27:17;6.60;;;5.20;;
8399;SDS011;4237;47.030;15.396;2023-05-10T05:29:47;5.97;;;5.20;;
8399;SDS011;4237;47.030;15.396;2023-05-10T05:32:15;8.10;;;5.37;;
8399;SDS011;4237;47.030;15.396;2023-05-10T05:34:46;7.40;;;5.17;;
8399;SDS011;4237;47.030;15.396;2023-05-10T05:37:15;9.03;;;4.77;;
8399;SDS011;4237;47.030;15.396;2023-05-10T05:39:43;5.57;;;4.70;;
8399;SDS011;4237;47.030;15.396;2023-05-10T05:42:12;7.57;;;4.63;;
8399;SDS011;4237;47.030;15.396;2023-05-10T05:44:41;7.77;;;4.87;;
8399;SDS011;4237;47.030;15.396;2023-05-10T05:47:09;7.93;;;5.30;;
8399;SDS011;4237;47.030;15.396;2023-05-10T05:49:37;7.53;;;5.10;;
8399;SDS011;4237;47.030;15.396;2023-05-10T05:52:06;7.70;;;5.07;;
8399;SDS011;4237;47.030;15.396;2023-05-10T05:54:34;7.00;;;4.83;;
8399;SDS011;4237;47.030;15.396;2023-05-10T05:57:02;5.73;;;5.13;;
8399;SDS011;4237;47.030;15.396;2023-05-10T05:59:31;13.17;;;5.33;;
8399;SDS011;4237;47.030;15.396;2023-05-10T06:01:59;8.07;;;5.17;;
8399;SDS011;4237;47.030;15.396;2023-05-10T06:04:27;8.57;;;5.33;;
8399;SDS011;4237;47.030;15.396;2023-05-10T06:06:56;7.63;;;5.27;;
8399;SDS011;4237;47.030;15.396;2023-05-10T06:09:24;7.13;;;5.40;;
8399;SDS011;4237;47.030;15.396;2023-05-10T06:11:52;11.17;;;5.70;;
8399;SDS011;4237;47.030;15.396;2023-05-10T06:14:20;9.23;;;5.40;;
8399;SDS011;4237;47.030;15.396;2023-05-10T06:16:49;11.33;;;5.37;;
8399;SDS011;4237;47.030;15.396;2023-05-10T06:19:17;9.93;;;5.23;;
8399;SDS011;4237;47.030;15.396;2023-05-10T06:21:45;8.23;;;5.53;;
8399;SDS011;4237;47.030;15.396;2023-05-10T06:24:13;6.20;;;5.53;;
8399;SDS011;4237;47.030;15.396;2023-05-10T06:26:41;10.83;;;6.03;;
8399;SDS011;4237;47.030;15.396;2023-05-10T06:29:09;8.63;;;5.70;;
8399;SDS011;4237;47.030;15.396;2023-05-10T06:31:38;9.03;;;5.43;;
8399;SDS011;4237;47.030;15.396;2023-05-10T06:34:06;10.97;;;5.10;;
8399;SDS011;4237;47.030;15.396;2023-05-10T06:36:35;6.53;;;4.70;;
8399;SDS011;4237;47.030;15.396;2023-05-10T06:39:03;7.97;;;5.20;;
8399;SDS011;4237;47.030;15.396;2023-05-10T06:44:19;7.33;;;4.97;;
8399;SDS011;4237;47.030;15.396;2023-05-10T06:46:47;10.00;;;6.37;;
8399;SDS011;4237;47.030;15.396;2023-05-10T06:49:15;8.13;;;6.23;;
8399;SDS011;4237;47.030;15.396;2023-05-10T06:51:44;9.20;;;5.97;;
8399;SDS011;4237;47.030;15.396;2023-05-10T06:54:12;8.07;;;5.33;;
8399;SDS011;4237;47.030;15.396;2023-05-10T06:56:40;7.47;;;5.37;;
8399;SDS011;4237;47.030;15.396;2023-05-10T06:59:08;8.83;;;5.00;;
8399;SDS011;4237;47.030;15.396;2023-05-10T07:01:36;9.47;;;5.00;;
8399;SDS011;4237;47.030;15.396;2023-05-10T07:04:05;12.67;;;5.23;;
8399;SDS011;4237;47.030;15.396;2023-05-10T07:06:34;7.70;;;5.07;;
8399;SDS011;4237;47.030;15.396;2023-05-10T07:09:03;6.03;;;5.40;;
8399;SDS011;4237;47.030;15.396;2023-05-10T07:11:31;6.67;;;5.43;;
8399;SDS011;4237;47.030;15.396;2023-05-10T07:13:59;9.23;;;5.80;;
8399;SDS011;4237;47.030;15.396;2023-05-10T07:16:27;10.83;;;4.83;;
8399;SDS011;4237;47.030;15.396;2023-05-10T07:18:56;6.30;;;5.27;;
8399;SDS011;4237;47.030;15.396;2023-05-10T07:21:24;6.90;;;4.70;;
8399;SDS011;4237;47.030;15.396;2023-05-10T07:23:54;5.80;;;5.03;;
8399;SDS011;4237;47.030;15.396;2023-05-10T07:26:22;6.73;;;5.17;;
8399;SDS011;4237;47.030;15.396;2023-05-10T07:28:51;12.67;;;5.17;;
8399;SDS011;4237;47.030;15.396;2023-05-10T07:31:19;10.30;;;5.40;;
8399;SDS011;4237;47.030;15.396;2023-05-10T07:33:47;7.47;;;5.30;;
8399;SDS011;4237;47.030;15.396;2023-05-10T07:36:15;7.40;;;5.40;;
8399;SDS011;4237;47.030;15.396;2023-05-10T07:38:43;14.80;;;6.00;;
8399;SDS011;4237;47.030;15.396;2023-05-10T07:41:12;6.90;;;5.37;;
8399;SDS011;4237;47.030;15.396;2023-05-10T07:43:40;7.57;;;5.63;;
8399;SDS011;4237;47.030;15.396;2023-05-10T07:46:08;11.40;;;6.57;;
8399;SDS011;4237;47.030;15.396;2023-05-10T07:48:37;7.97;;;5.70;;
8399;SDS011;4237;47.030;15.396;2023-05-10T07:51:05;10.50;;;5.97;;
8399;SDS011;4237;47.030;15.396;2023-05-10T07:53:35;7.03;;;5.70;;
8399;SDS011;4237;47.030;15.396;2023-05-10T07:56:20;9.83;;;5.57;;
8399;SDS011;4237;47.030;15.396;2023-05-10T07:58:33;10.87;;;6.40;;
8399;SDS011;4237;47.030;15.396;2023-05-10T08:01:01;7.73;;;5.80;;
8399;SDS011;4237;47.030;15.396;2023-05-10T08:03:29;8.80;;;6.20;;
8399;SDS011;4237;47.030;15.396;2023-05-10T08:05:57;9.53;;;5.80;;
8399;SDS011;4237;47.030;15.396;2023-05-10T08:08:26;10.20;;;6.07;;
8399;SDS011;4237;47.030;15.396;2023-05-10T08:10:55;13.07;;;5.73;;
8399;SDS011;4237;47.030;15.396;2023-05-10T08:13:23;11.13;;;6.10;;
8399;SDS011;4237;47.030;15.396;2023-05-10T08:15:51;10.43;;;5.97;;
8399;SDS011;4237;47.030;15.396;2023-05-10T08:18:20;11.63;;;5.77;;
8399;SDS011;4237;47.030;15.396;2023-05-10T08:20:48;7.57;;;6.13;;
8399;SDS011;4237;47.030;15.396;2023-05-10T08:23:16;6.80;;;5.53;;
8399;SDS011;4237;47.030;15.396;2023-05-10T08:25:44;13.97;;;5.93;;
8399;SDS011;4237;47.030;15.396;2023-05-10T08:28:13;14.03;;;5.33;;
8399;SDS011;4237;47.030;15.396;2023-05-10T08:30:41;10.67;;;4.87;;
8399;SDS011;4237;47.030;15.396;2023-05-10T08:33:09;8.40;;;4.90;;
8399;SDS011;4237;47.030;15.396;2023-05-10T08:35:37;6.63;;;4.90;;
8399;SDS011;4237;47.030;15.396;2023-05-10T08:38:05;14.20;;;8.17;;
8399;SDS011;4237;47.030;15.396;2023-05-10T08:40:34;8.50;;;5.17;;
8399;SDS011;4237;47.030;15.396;2023-05-10T08:43:07;13.20;;;5.60;;
8399;SDS011;4237;47.030;15.396;2023-05-10T08:45:39;10.80;;;5.07;;
8399;SDS011;4237;47.030;15.396;2023-05-10T08:48:08;8.63;;;4.70;;
8399;SDS011;4237;47.030;15.396;2023-05-10T08:50:38;8.70;;;4.13;;
8399;SDS011;4237;47.030;15.396;2023-05-10T08:53:13;7.67;;;5.00;;
8399;SDS011;4237;47.030;15.396;2023-05-10T08:55:37;5.40;;;4.37;;
8399;SDS011;4237;47.030;15.396;2023-05-10T08:58:06;5.47;;;4.37;;
8399;SDS011;4237;47.030;15.396;2023-05-10T09:00:34;5.93;;;3.90;;
8399;SDS011;4237;47.030;15.396;2023-05-10T09:03:04;7.43;;;4.13;;
8399;SDS011;4237;47.030;15.396;2023-05-10T09:05:33;7.13;;;4.10;;
8399;SDS011;4237;47.030;15.396;2023-05-10T09:08:01;7.93;;;4.87;;
8399;SDS011;4237;47.030;15.396;2023-05-10T09:10:29;5.60;;;3.80;;
8399;SDS011;4237;47.030;15.396;2023-05-10T09:12:58;7.17;;;3.63;;
8399;SDS011;4237;47.030;15.396;2023-05-10T09:15:27;10.33;;;3.40;;
8399;SDS011;4237;47.030;15.396;2023-05-10T09:17:55;8.43;;;4.10;;
8399;SDS011;4237;47.030;15.396;2023-05-10T09:20:25;6.27;;;3.23;;
8399;SDS011;4237;47.030;15.396;2023-05-10T09:22:53;9.07;;;3.70;;
8399;SDS011;4237;47.030;15.396;2023-05-10T09:25:21;8.50;;;3.57;;
8399;SDS011;4237;47.030;15.396;2023-05-10T09:27:49;7.67;;;4.43;;
8399;SDS011;4237;47.030;15.396;2023-05-10T09:32:48;9.23;;;3.67;;
8399;SDS011;4237;47.030;15.396;2023-05-10T09:35:18;8.73;;;4.13;;
8399;SDS011;4237;47.030;15.396;2023-05-10T09:37:47;7.77;;;3.70;;
8399;SDS011;4237;47.030;15.396;2023-05-10T09:40:16;6.53;;;3.50;;
8399;SDS011;4237;47.030;15.396;2023-05-10T09:43:07;10.03;;;4.00;;
8399;SDS011;4237;47.030;15.396;2023-05-10T09:45:14;11.43;;;4.53;;
8399;SDS011;4237;47.030;15.396;2023-05-10T09:47:43;8.33;;;4.60;;
8399;SDS011;4237;47.030;15.396;2023-05-10T09:50:11;6.93;;;3.83;;
8399;SDS011;4237;47.030;15.396;2023-05-10T09:52:46;5.70;;;4.27;;
8399;SDS011;4237;47.030;15.396;2023-05-10T09:55:15;4.37;;;3.90;;
8399;SDS011;4237;47.030;15.396;2023-05-10T09:57:43;7.67;;;4.57;;
8399;SDS011;4237;47.030;15.396;2023-05-10T10:00:14;10.93;;;4.20;;
8399;SDS011;4237;47.030;15.396;2023-05-10T10:02:41;7.20;;;3.83;;
8399;SDS011;4237;47.030;15.396;2023-05-10T10:05:10;5.10;;;4.07;;
8399;SDS011;4237;47.030;15.396;2023-05-10T10:07:39;7.70;;;4.37;;
8399;SDS011;4237;47.030;15.396;2023-05-10T10:10:08;5.23;;;4.13;;
8399;SDS011;4237;47.030;15.396;2023-05-10T10:12:38;7.50;;;4.50;;
8399;SDS011;4237;47.030;15.396;2023-05-10T10:15:08;5.70;;;3.83;;
8399;SDS011;4237;47.030;15.396;2023-05-10T10:17:37;4.53;;;3.33;;
8399;SDS011;4237;47.030;15.396;2023-05-10T10:20:08;6.03;;;3.80;;
8399;SDS011;4237;47.030;15.396;2023-05-10T10:22:37;5.17;;;3.80;;
8399;SDS011;4237;47.030;15.396;2023-05-10T10:25:08;4.30;;;3.90;;
8399;SDS011;4237;47.030;15.396;2023-05-10T10:27:42;15.03;;;4.60;;
8399;SDS011;4237;47.030;15.396;2023-05-10T10:35:29;4.33;;;3.93;;
8399;SDS011;4237;47.030;15.396;2023-05-10T10:37:58;5.10;;;3.77;;
8399;SDS011;4237;47.030;15.396;2023-05-10T10:40:36;5.37;;;4.40;;
8399;SDS011;4237;47.030;15.396;2023-05-10T10:48:33;5.97;;;3.90;;
8399;SDS011;4237;47.030;15.396;2023-05-10T10:51:01;5.43;;;3.77;;
8399;SDS011;4237;47.030;15.396;2023-05-10T10:53:30;4.23;;;3.80;;
8399;SDS011;4237;47.030;15.396;2023-05-10T10:56:05;4.70;;;4.20;;
8399;SDS011;4237;47.030;15.396;2023-05-10T10:58:35;6.27;;;4.90;;
8399;SDS011;4237;47.030;15.396;2023-05-10T11:01:17;8.33;;;4.33;;
8399;SDS011;4237;47.030;15.396;2023-05-10T11:04:16;6.63;;;4.30;;
8399;SDS011;4237;47.030;15.396;2023-05-10T11:06:34;4.87;;;4.23;;
8399;SDS011;4237;47.030;15.396;2023-05-10T11:09:10;5.77;;;4.30;;
8399;SDS011;4237;47.030;15.396;2023-05-10T11:11:35;7.13;;;3.97;;
8399;SDS011;4237;47.030;15.396;2023-05-10T11:14:06;8.40;;;4.47;;
8399;SDS011;4237;47.030;15.396;2023-05-10T11:16:41;4.23;;;3.83;;
8399;SDS011;4237;47.030;15.396;2023-05-10T11:19:11;5.17;;;4.67;;
8399;SDS011;4237;47.030;15.396;2023-05-10T11:24:19;6.50;;;4.33;;
8399;SDS011;4237;47.030;15.396;2023-05-10T11:26:49;4.53;;;4.13;;
8399;SDS011;4237;47.030;15.396;2023-05-10T11:29:17;5.20;;;3.83;;
8399;SDS011;4237;47.030;15.396;2023-05-10T11:31:45;7.87;;;4.17;;
8399;SDS011;4237;47.030;15.396;2023-05-10T11:34:24;5.03;;;4.50;;
8399;SDS011;4237;47.030;15.396;2023-05-10T11:36:55;4.83;;;4.42;;
8399;SDS011;4237;47.030;15.396;2023-05-10T11:39:30;4.80;;;4.20;;
8399;SDS011;4237;47.030;15.396;2023-05-10T11:41:55;5.50;;;4.30;;
8399;SDS011;4237;47.030;15.396;2023-05-10T11:44:28;8.30;;;5.07;;
8399;SDS011;4237;47.030;15.396;2023-05-10T11:46:53;4.50;;;4.10;;
8399;SDS011;4237;47.030;15.396;2023-05-10T11:49:21;5.47;;;3.70;;
8399;SDS011;4237;47.030;15.396;2023-05-10T11:51:51;7.17;;;3.90;;
8399;SDS011;4237;47.030;15.396;2023-05-10T11:54:19;4.65;;;3.80;;
8399;SDS011;4237;47.030;15.396;2023-05-10T11:56:47;4.93;;;3.37;;
8399;SDS011;4237;47.030;15.396;2023-05-10T11:59:15;4.23;;;3.83;;
8399;SDS011;4237;47.030;15.396;2023-05-10T12:01:43;6.13;;;3.63;;
8399;SDS011;4237;47.030;15.396;2023-05-10T12:04:12;4.13;;;3.73;;
8399;SDS011;4237;47.030;15.396;2023-05-10T12:06:40;5.83;;;3.77;;
8399;SDS011;4237;47.030;15.396;2023-05-10T12:09:09;4.07;;;3.70;;
8399;SDS011;4237;47.030;15.396;2023-05-10T12:11:40;8.10;;;3.60;;
8399;SDS011;4237;47.030;15.396;2023-05-10T12:14:08;3.77;;;3.43;;
8399;SDS011;4237;47.030;15.396;2023-05-10T12:19:25;8.17;;;3.40;;
8399;SDS011;4237;47.030;15.396;2023-05-10T12:21:53;4.30;;;3.90;;
8399;SDS011;4237;47.030;15.396;2023-05-10T12:24:22;10.90;;;5.60;;
8399;SDS011;4237;47.030;15.396;2023-05-10T12:26:52;5.97;;;3.43;;
8399;SDS011;4237;47.030;15.396;2023-05-10T12:29:20;7.73;;;3.73;;
8399;SDS011;4237;47.030;15.396;2023-05-10T12:31:58;3.80;;;3.40;;
8399;SDS011;4237;47.030;15.396;2023-05-10T12:34:27;4.67;;;3.67;;
8399;SDS011;4237;47.030;15.396;2023-05-10T12:36:56;7.43;;;4.27;;
8399;SDS011;4237;47.030;15.396;2023-05-10T12:39:24;5.33;;;3.60;;
8399;SDS011;4237;47.030;15.396;2023-05-10T12:41:52;7.27;;;4.07;;
8399;SDS011;4237;47.030;15.396;2023-05-10T12:44:20;9.90;;;4.20;;
8399;SDS011;4237;47.030;15.396;2023-05-10T12:46:49;5.27;;;4.40;;
8399;SDS011;4237;47.030;15.396;2023-05-10T12:49:17;6.40;;;4.20;;
8399;SDS011;4237;47.030;15.396;2023-05-10T12:51:46;5.33;;;4.50;;
8399;SDS011;4237;47.030;15.396;2023-05-10T12:54:15;5.43;;;4.37;;
8399;SDS011;4237;47.030;15.396;2023-05-10T12:56:43;5.00;;;4.50;;
8399;SDS011;4237;47.030;15.396;2023-05-10T13:01:58;6.50;;;3.93;;
8399;SDS011;4237;47.030;15.396;2023-05-10T13:04:27;5.13;;;4.27;;
8399;SDS011;4237;47.030;15.396;2023-05-10T13:06:55;6.60;;;4.10;;
8399;SDS011;4237;47.030;15.396;2023-05-10T13:09:26;6.00;;;3.93;;
8399;SDS011;4237;47.030;15.396;2023-05-10T13:11:56;7.63;;;3.80;;
8399;SDS011;4237;47.030;15.396;2023-05-10T13:14:24;5.73;;;3.97;;
8399;SDS011;4237;47.030;15.396;2023-05-10T13:16:53;8.37;;;3.80;;
8399;SDS011;4237;47.030;15.396;2023-05-10T13:19:21;5.63;;;3.70;;
8399;SDS011;4237;47.030;15.396;2023-05-10T13:21:49;5.23;;;4.17;;
8399;SDS011;4237;47.030;15.396;2023-05-10T13:24:17;9.10;;;4.17;;
8399;SDS011;4237;47.030;15.396;2023-05-10T13:26:46;6.13;;;4.13;;
8399;SDS011;4237;47.030;15.396;2023-05-10T13:29:14;4.47;;;3.60;;
8399;SDS011;4237;47.030;15.396;2023-05-10T13:31:44;7.93;;;3.77;;
8399;SDS011;4237;47.030;15.396;2023-05-10T13:34:12;4.30;;;3.63;;
8399;SDS011;4237;47.030;15.396;2023-05-10T13:36:40;5.37;;;3.60;;
8399;SDS011;4237;47.030;15.396;2023-05-10T13:39:09;7.43;;;4.30;;
8399;SDS011;4237;47.030;15.396;2023-05-10T13:41:37;4.90;;;3.87;;
8399;SDS011;4237;47.030;15.396;2023-05-10T13:44:05;7.73;;;3.87;;
8399;SDS011;4237;47.030;15.396;2023-05-10T13:46:34;4.43;;;3.70;;
8399;SDS011;4237;47.030;15.396;2023-05-10T13:49:02;7.90;;;3.70;;
8399;SDS011;4237;47.030;15.396;2023-05-10T13:51:30;5.57;;;3.87;;
8399;SDS011;4237;47.030;15.396;2023-05-10T13:54:02;4.53;;;4.03;;
8399;SDS011;4237;47.030;15.396;2023-05-10T13:56:31;6.27;;;3.80;;
8399;SDS011;4237;47.030;15.396;2023-05-10T13:58:59;6.10;;;3.83;;
8399;SDS011;4237;47.030;15.396;2023-05-10T14:01:27;4.47;;;4.00;;
8399;SDS011;4237;47.030;15.396;2023-05-10T14:03:55;4.57;;;3.40;;
8399;SDS011;4237;47.030;15.396;2023-05-10T14:06:23;4.20;;;3.80;;
8399;SDS011;4237;47.030;15.396;2023-05-10T14:08:51;4.53;;;4.13;;
8399;SDS011;4237;47.030;15.396;2023-05-10T14:11:20;5.40;;;4.03;;
8399;SDS011;4237;47.030;15.396;2023-05-10T14:13:49;5.83;;;3.80;;
8399;SDS011;4237;47.030;15.396;2023-05-10T14:16:17;5.10;;;4.10;;
8399;SDS011;4237;47.030;15.396;2023-05-10T14:18:46;7.27;;;3.43;;
8399;SDS011;4237;47.030;15.396;2023-05-10T14:21:14;4.67;;;3.70;;
8399;SDS011;4237;47.030;15.396;2023-05-10T14:23:42;6.20;;;3.70;;
8399;SDS011;4237;47.030;15.396;2023-05-10T14:26:10;6.23;;;3.73;;
8399;SDS011;4237;47.030;15.396;2023-05-10T14:28:39;4.53;;;3.43;;
8399;SDS011;4237;47.030;15.396;2023-05-10T14:31:07;6.80;;;3.90;;
8399;SDS011;4237;47.030;15.396;2023-05-10T14:33:35;8.70;;;4.07;;
8399;SDS011;4237;47.030;15.396;2023-05-10T14:36:03;11.10;;;4.03;;
8399;SDS011;4237;47.030;15.396;2023-05-10T14:38:32;5.77;;;3.50;;
8399;SDS011;4237;47.030;15.396;2023-05-10T14:41:00;5.37;;;3.60;;
8399;SDS011;4237;47.030;15.396;2023-05-10T14:43:28;6.30;;;3.60;;
8399;SDS011;4237;47.030;15.396;2023-05-10T14:45:57;4.40;;;3.53;;
8399;SDS011;4237;47.030;15.396;2023-05-10T14:48:26;3.97;;;3.57;;
8399;SDS011;4237;47.030;15.396;2023-05-10T14:50:54;3.97;;;3.50;;
8399;SDS011;4237;47.030;15.396;2023-05-10T14:53:22;4.37;;;3.40;;
8399;SDS011;4237;47.030;15.396;2023-05-10T14:55:50;3.93;;;3.50;;
8399;SDS011;4237;47.030;15.396;2023-05-10T14:58:18;4.63;;;3.30;;
8399;SDS011;4237;47.030;15.396;2023-05-10T15:00:46;5.80;;;3.43;;
8399;SDS011;4237;47.030;15.396;2023-05-10T15:03:15;7.33;;;4.03;;
8399;SDS011;4237;47.030;15.396;2023-05-10T15:05:43;6.57;;;3.73;;
8399;SDS011;4237;47.030;15.396;2023-05-10T15:08:11;4.03;;;3.63;;
8399;SDS011;4237;47.030;15.396;2023-05-10T15:10:39;5.53;;;3.70;;
8399;SDS011;4237;47.030;15.396;2023-05-10T15:13:07;5.23;;;3.40;;
8399;SDS011;4237;47.030;15.396;2023-05-10T15:15:36;7.83;;;3.30;;
8399;SDS011;4237;47.030;15.396;2023-05-10T15:18:04;4.87;;;3.50;;
8399;SDS011;4237;47.030;15.396;2023-05-10T15:20:32;4.60;;;3.50;;
8399;SDS011;4237;47.030;15.396;2023-05-10T15:23:01;8.37;;;3.40;;
8399;SDS011;4237;47.030;15.396;2023-05-10T15:25:29;5.73;;;3.67;;
8399;SDS011;4237;47.030;15.396;2023-05-10T15:27:57;5.83;;;3.33;;
8399;SDS011;4237;47.030;15.396;2023-05-10T15:30:25;3.33;;;3.03;;
8399;SDS011;4237;47.030;15.396;2023-05-10T15:32:53;4.33;;;3.33;;
8399;SDS011;4237;47.030;15.396;2023-05-10T15:35:21;9.03;;;3.60;;
8399;SDS011;4237;47.030;15.396;2023-05-10T15:37:50;4.20;;;2.60;;
8399;SDS011;4237;47.030;15.396;2023-05-10T15:40:18;4.97;;;3.30;;
8399;SDS011;4237;47.030;15.396;2023-05-10T15:42:46;4.03;;;3.50;;